Time;durP1;ratioP1;P1;durP2;ratioP2;P2;SDS_P1;SDS_P2;PMS_P1;PMS_P2;Temp;Humidity;BMP_temperature;BMP_pressure;BME280_temperature;BME280_humidity;BME280_pressure;Samples;Min_cycle;Max_cycle;Signal;HPM_P1;HPM_P2
2021/12/28 00:00:25;;;;;;;5.10;4.70;;;18.60;22.20;;;;;;5056106;28;20594;-59
2021/12/28 00:02:53;;;;;;;5.13;4.72;;;18.50;22.20;;;;;;5056294;28;20197;-60
2021/12/28 00:05:21;;;;;;;5.50;5.00;;;18.50;22.20;;;;;;5055862;28;20292;-60
2021/12/28 00:07:48;;;;;;;5.18;4.75;;;18.60;22.20;;;;;;5055467;28;20208;-60
2021/12/28 00:10:17;;;;;;;5.38;4.97;;;18.50;22.20;;;;;;5055880;28;20224;-60
2021/12/28 00:12:46;;;;;;;5.80;5.20;;;18.50;22.20;;;;;;5055233;28;20482;-60
2021/12/28 00:15:32;;;;;;;5.68;5.18;;;18.50;22.80;;;;;;5055655;28;20280;-60
2021/12/28 00:18:02;;;;;;;5.45;4.95;;;18.50;22.20;;;;;;5052322;28;20255;-60
2021/12/28 00:20:30;;;;;;;6.30;5.30;;;18.50;22.20;;;;;;5056523;28;20274;-60
2021/12/28 00:22:57;;;;;;;5.43;4.93;;;18.50;22.20;;;;;;5055463;28;20289;-60
2021/12/28 00:25:24;;;;;;;6.05;5.55;;;18.40;22.10;;;;;;5055877;28;20215;-60
2021/12/28 00:27:53;;;;;;;5.20;4.72;;;18.50;22.20;;;;;;5055307;28;20487;-60
2021/12/28 00:30:21;;;;;;;5.85;5.35;;;18.40;22.10;;;;;;5055856;28;20207;-59
2021/12/28 00:32:52;;;;;;;5.72;5.22;;;18.40;22.10;;;;;;5016406;28;20225;-59
2021/12/28 00:35:20;;;;;;;5.72;5.22;;;18.40;22.20;;;;;;5016319;28;20226;-60
2021/12/28 00:37:48;;;;;;;5.53;5.00;;;18.40;22.10;;;;;;5052666;28;20211;-60
2021/12/28 00:40:15;;;;;;;5.70;5.20;;;18.40;22.30;;;;;;5055041;28;20236;-59
2021/12/28 00:42:42;;;;;;;5.78;5.28;;;18.40;22.10;;;;;;5056013;28;20217;-60
2021/12/28 00:45:11;;;;;;;5.50;5.03;;;18.30;22.00;;;;;;5055294;28;20205;-59
2021/12/28 00:47:39;;;;;;;5.97;5.47;;;18.30;22.20;;;;;;5054511;28;20201;-59
2021/12/28 00:50:08;;;;;;;5.72;5.22;;;18.30;22.20;;;;;;5054911;28;20208;-59
2021/12/28 00:52:37;;;;;;;5.90;5.30;;;18.30;22.10;;;;;;5055689;28;20204;-60
2021/12/28 00:55:05;;;;;;;6.00;5.50;;;18.30;22.00;;;;;;5055653;28;20650;-60
2021/12/28 00:57:33;;;;;;;6.13;5.53;;;18.20;22.00;;;;;;5055765;28;20201;-60
2021/12/28 01:00:01;;;;;;;6.32;5.72;;;18.20;22.00;;;;;;5056007;28;20236;-60
2021/12/28 01:02:29;;;;;;;5.70;5.18;;;18.10;22.20;;;;;;5055678;28;20270;-60
2021/12/28 01:04:56;;;;;;;5.80;5.30;;;18.10;21.90;;;;;;5055799;28;20223;-60
2021/12/28 01:07:23;;;;;;;6.75;6.05;;;18.10;21.90;;;;;;5055470;28;20201;-60
2021/12/28 01:09:51;;;;;;;6.32;5.72;;;18.10;22.20;;;;;;5055243;28;20223;-60
2021/12/28 01:12:19;;;;;;;6.20;5.63;;;18.00;21.80;;;;;;5056172;28;20216;-60
2021/12/28 01:14:46;;;;;;;6.38;5.78;;;18.00;22.10;;;;;;5055932;28;20212;-60
2021/12/28 01:17:13;;;;;;;5.93;5.43;;;17.90;22.10;;;;;;5055286;28;20201;-59
2021/12/28 01:19:42;;;;;;;6.18;5.57;;;18.00;21.90;;;;;;5055847;28;20650;-59
2021/12/28 01:22:09;;;;;;;6.25;5.70;;;17.90;22.00;;;;;;5055436;28;20215;-60
2021/12/28 01:24:36;;;;;;;6.03;5.53;;;17.90;22.00;;;;;;5055634;28;20213;-60
2021/12/28 01:27:04;;;;;;;6.03;5.43;;;17.80;22.70;;;;;;5054804;28;20197;-60
2021/12/28 01:29:32;;;;;;;6.68;6.07;;;17.80;21.80;;;;;;5055520;28;20212;-60
2021/12/28 01:32:00;;;;;;;6.50;5.90;;;17.80;21.70;;;;;;5055861;28;20205;-59
2021/12/28 01:34:28;;;;;;;6.28;5.75;;;17.80;21.70;;;;;;5057022;28;20232;-60
2021/12/28 01:36:58;;;;;;;6.28;5.68;;;17.80;21.70;;;;;;5058791;28;20201;-59
2021/12/28 01:39:26;;;;;;;6.30;5.70;;;17.70;21.60;;;;;;5059162;28;20220;-59
2021/12/28 01:41:53;;;;;;;6.38;5.78;;;17.70;21.60;;;;;;5059329;28;20521;-60
2021/12/28 01:44:20;;;;;;;5.88;5.38;;;17.70;21.70;;;;;;5059236;28;20216;-59
2021/12/28 01:46:47;;;;;;;6.38;5.85;;;17.60;21.60;;;;;;5058971;28;20193;-60
2021/12/28 01:49:14;;;;;;;6.50;5.90;;;17.60;21.60;;;;;;5059024;28;20580;-60
2021/12/28 01:51:42;;;;;;;5.70;5.20;;;17.60;21.60;;;;;;5058970;28;20212;-60
2021/12/28 01:54:10;;;;;;;6.60;5.90;;;17.60;21.60;;;;;;5058631;28;20213;-59
2021/12/28 01:56:41;;;;;;;6.90;6.28;;;17.50;21.70;;;;;;5058310;28;20208;-60
2021/12/28 01:59:09;;;;;;;6.68;6.07;;;17.50;21.80;;;;;;5058490;28;20317;-59
2021/12/28 02:01:36;;;;;;;6.35;5.75;;;17.40;21.60;;;;;;5058830;28;20205;-60
2021/12/28 02:04:12;;;;;;;5.82;5.22;;;17.50;21.90;;;;;;5058653;28;20205;-59
2021/12/28 02:06:39;;;;;;;6.25;5.75;;;17.40;22.00;;;;;;5058736;28;20200;-59
2021/12/28 02:09:07;;;;;;;6.75;6.15;;;17.40;21.70;;;;;;5058836;28;20197;-59
2021/12/28 02:11:36;;;;;;;6.55;5.85;;;17.40;21.90;;;;;;5058926;28;20213;-60
2021/12/28 02:14:05;;;;;;;6.57;5.88;;;17.40;21.80;;;;;;5058946;28;20486;-60
2021/12/28 02:16:33;;;;;;;6.70;6.10;;;17.40;21.90;;;;;;5058370;28;20198;-60
2021/12/28 02:19:01;;;;;;;6.90;6.30;;;17.30;21.80;;;;;;5058546;28;20220;-59
2021/12/28 02:21:31;;;;;;;6.13;5.53;;;17.30;21.90;;;;;;5058672;28;20708;-59
2021/12/28 02:23:59;;;;;;;6.68;6.07;;;17.30;21.90;;;;;;5058364;28;20201;-60
2021/12/28 02:26:26;;;;;;;6.30;5.70;;;17.20;21.90;;;;;;5058407;28;20197;-60
2021/12/28 02:28:53;;;;;;;6.88;6.28;;;17.20;22.00;;;;;;5058212;28;20205;-59
2021/12/28 02:31:20;;;;;;;6.88;6.28;;;17.20;21.90;;;;;;5058374;28;20205;-60
2021/12/28 02:33:50;;;;;;;6.22;5.72;;;17.20;22.00;;;;;;5058199;28;20259;-60
2021/12/28 02:36:19;;;;;;;6.60;6.00;;;17.20;21.90;;;;;;5057967;28;20201;-59
2021/12/28 02:38:48;;;;;;;6.30;5.70;;;17.10;21.90;;;;;;5058309;28;20216;-59
2021/12/28 02:41:16;;;;;;;6.28;5.78;;;17.10;22.00;;;;;;5058315;28;20236;-60
2021/12/28 02:43:47;;;;;;;6.40;5.80;;;17.10;22.00;;;;;;5058534;28;20205;-60
2021/12/28 02:46:15;;;;;;;6.05;5.55;;;17.10;22.10;;;;;;5058351;28;20288;-59
2021/12/28 02:48:43;;;;;;;6.45;5.85;;;17.10;22.10;;;;;;5058869;28;20622;-60
2021/12/28 02:51:12;;;;;;;6.18;5.65;;;17.00;22.00;;;;;;5058520;28;20288;-59
2021/12/28 02:53:40;;;;;;;6.50;5.90;;;17.00;22.10;;;;;;5058441;28;20209;-59
2021/12/28 02:56:09;;;;;;;6.30;5.70;;;17.00;22.00;;;;;;5057194;28;20205;-59
2021/12/28 02:58:41;;;;;;;6.38;5.78;;;17.00;22.00;;;;;;5057525;28;20211;-59
2021/12/28 03:01:12;;;;;;;6.28;5.68;;;17.00;22.10;;;;;;5057729;28;20628;-60
2021/12/28 03:03:39;;;;;;;6.28;5.68;;;16.90;22.00;;;;;;5058660;28;20205;-59
2021/12/28 03:06:08;;;;;;;6.25;5.65;;;16.90;22.00;;;;;;5058372;28;20300;-60
2021/12/28 03:08:37;;;;;;;6.43;5.85;;;16.90;22.00;;;;;;5058716;28;20217;-59
2021/12/28 03:11:05;;;;;;;6.53;5.93;;;16.90;22.00;;;;;;5058865;28;20201;-59
2021/12/28 03:13:37;;;;;;;6.07;5.47;;;16.90;22.10;;;;;;5058566;28;20209;-59
2021/12/28 03:16:05;;;;;;;6.18;5.63;;;16.90;22.20;;;;;;5058126;28;20201;-59
2021/12/28 03:18:32;;;;;;;7.10;6.40;;;16.80;22.10;;;;;;5058395;28;20494;-59
2021/12/28 03:20:59;;;;;;;5.82;5.32;;;16.80;22.10;;;;;;5058418;28;20233;-60
2021/12/28 03:23:27;;;;;;;5.80;5.30;;;16.80;22.20;;;;;;5058828;28;20208;-59
2021/12/28 03:25:55;;;;;;;5.93;5.43;;;16.80;22.10;;;;;;5058077;28;20201;-59
2021/12/28 03:28:25;;;;;;;5.88;5.38;;;16.80;22.20;;;;;;5057414;28;20212;-59
2021/12/28 03:30:54;;;;;;;5.78;5.28;;;16.80;22.10;;;;;;5057803;28;20232;-59
2021/12/28 03:33:23;;;;;;;5.75;5.25;;;16.70;22.10;;;;;;5057968;28;20240;-59
2021/12/28 03:35:50;;;;;;;5.65;5.15;;;16.70;22.10;;;;;;5057899;28;20232;-59
2021/12/28 03:38:18;;;;;;;5.63;5.13;;;16.70;22.20;;;;;;5058361;28;20212;-59
2021/12/28 03:40:45;;;;;;;5.97;5.47;;;16.70;22.10;;;;;;5058120;28;20236;-59
2021/12/28 03:43:13;;;;;;;5.57;5.07;;;16.70;22.20;;;;;;5057941;28;20504;-59
2021/12/28 03:45:40;;;;;;;5.80;5.30;;;16.60;22.20;;;;;;5057734;28;20201;-59
2021/12/28 03:48:09;;;;;;;6.07;5.47;;;16.60;22.20;;;;;;5058334;28;20485;-59
2021/12/28 03:50:37;;;;;;;5.88;5.38;;;16.60;22.20;;;;;;5058214;28;20564;-59
2021/12/28 03:53:07;;;;;;;6.10;5.57;;;16.60;22.30;;;;;;5058001;28;20259;-59
2021/12/28 03:55:35;;;;;;;5.65;5.13;;;16.60;22.30;;;;;;5057462;28;20201;-59
2021/12/28 03:58:03;;;;;;;6.15;5.65;;;16.60;22.20;;;;;;5057222;28;20577;-59
2021/12/28 04:00:33;;;;;;;5.97;5.47;;;16.50;22.90;;;;;;5057596;28;20244;-59
2021/12/28 04:03:00;;;;;;;6.15;5.55;;;16.50;22.20;;;;;;5057329;28;20236;-59
2021/12/28 04:05:29;;;;;;;5.80;5.30;;;16.50;22.20;;;;;;5057585;28;20205;-59
2021/12/28 04:07:56;;;;;;;6.43;5.82;;;16.50;22.20;;;;;;5057891;28;20204;-59
2021/12/28 04:10:30;;;;;;;5.43;4.93;;;16.50;22.20;;;;;;5057622;28;20201;-58
2021/12/28 04:12:57;;;;;;;5.75;5.25;;;16.50;22.30;;;;;;5057027;28;20208;-58
2021/12/28 04:15:25;;;;;;;5.82;5.32;;;16.40;22.20;;;;;;5057344;28;20205;-59
2021/12/28 04:17:52;;;;;;;5.63;5.13;;;16.40;22.20;;;;;;5057608;28;20240;-59
2021/12/28 04:20:21;;;;;;;5.60;5.10;;;16.40;22.20;;;;;;5057967;28;20225;-59
2021/12/28 04:22:50;;;;;;;6.15;5.63;;;16.40;22.20;;;;;;5057158;28;20201;-59
2021/12/28 04:25:19;;;;;;;5.97;5.40;;;16.40;22.30;;;;;;5057357;28;20205;-59
2021/12/28 04:27:47;;;;;;;6.20;5.70;;;16.40;22.30;;;;;;5057424;28;20212;-59
2021/12/28 04:30:15;;;;;;;6.05;5.50;;;16.40;22.30;;;;;;5057218;28;20201;-59
2021/12/28 04:32:43;;;;;;;5.63;5.13;;;16.40;22.30;;;;;;5056954;28;20197;-59
2021/12/28 04:35:10;;;;;;;6.07;5.47;;;16.30;22.20;;;;;;5056598;28;20244;-59
2021/12/28 04:37:38;;;;;;;5.78;5.28;;;16.30;22.30;;;;;;5057361;28;20212;-59
2021/12/28 04:40:09;;;;;;;5.68;5.18;;;16.30;22.30;;;;;;5056722;28;20232;-59
2021/12/28 04:42:36;;;;;;;6.10;5.57;;;16.30;22.30;;;;;;5056645;28;20197;-59
2021/12/28 04:45:06;;;;;;;6.32;5.72;;;16.30;22.30;;;;;;5057126;28;20205;-59
2021/12/28 04:47:33;;;;;;;6.35;5.75;;;16.20;22.20;;;;;;5056848;28;20215;-59
2021/12/28 04:50:00;;;;;;;5.97;5.40;;;16.20;22.20;;;;;;5057054;28;20619;-59
2021/12/28 04:52:30;;;;;;;5.90;5.40;;;16.20;22.30;;;;;;5056876;28;20504;-60
2021/12/28 04:54:57;;;;;;;5.95;5.45;;;16.20;22.30;;;;;;5056841;28;20205;-59
2021/12/28 04:57:25;;;;;;;5.93;5.43;;;16.20;22.30;;;;;;5057171;28;20196;-60
2021/12/28 04:59:52;;;;;;;6.47;5.88;;;16.20;22.30;;;;;;5057312;28;20211;-59
2021/12/28 05:02:19;;;;;;;6.03;5.53;;;16.20;22.30;;;;;;5056692;28;20211;-59
2021/12/28 05:04:47;;;;;;;6.30;5.68;;;16.20;22.30;;;;;;5056693;28;20223;-59
2021/12/28 05:07:15;;;;;;;6.40;5.80;;;16.10;22.30;;;;;;5056879;28;20216;-59
2021/12/28 05:09:42;;;;;;;6.15;5.55;;;16.10;22.40;;;;;;5058702;28;20201;-59
2021/12/28 05:12:10;;;;;;;6.15;5.63;;;16.10;22.40;;;;;;5060978;28;20216;-59
2021/12/28 05:14:41;;;;;;;6.38;5.80;;;16.10;22.30;;;;;;5060073;28;20515;-59
2021/12/28 05:17:09;;;;;;;6.30;5.70;;;16.10;22.40;;;;;;5061004;28;20235;-60
2021/12/28 05:19:37;;;;;;;6.55;5.95;;;16.10;22.30;;;;;;5060659;28;20294;-59
2021/12/28 05:22:08;;;;;;;6.38;5.78;;;16.00;22.30;;;;;;5060281;28;20236;-59
2021/12/28 05:24:35;;;;;;;5.78;5.28;;;16.10;22.40;;;;;;5060261;28;20205;-59
2021/12/28 05:27:02;;;;;;;6.35;5.85;;;16.00;22.40;;;;;;5060644;28;20216;-59
2021/12/28 05:29:29;;;;;;;6.25;5.65;;;16.00;22.40;;;;;;5060109;28;20205;-59
2021/12/28 05:31:58;;;;;;;6.20;5.60;;;16.00;22.40;;;;;;5060395;28;20604;-59
2021/12/28 05:34:25;;;;;;;6.10;5.60;;;16.00;22.40;;;;;;5058794;28;20243;-59
2021/12/28 05:36:52;;;;;;;5.95;5.35;;;15.90;22.40;;;;;;5058934;28;20630;-58
2021/12/28 05:39:19;;;;;;;6.20;5.60;;;15.90;22.30;;;;;;5059273;28;20205;-59
2021/12/28 05:41:46;;;;;;;6.18;5.57;;;15.90;22.40;;;;;;5059041;28;20224;-59
2021/12/28 05:44:15;;;;;;;6.20;5.70;;;15.90;22.40;;;;;;5058343;28;20201;-59
2021/12/28 05:46:42;;;;;;;6.10;5.60;;;15.90;22.40;;;;;;5058768;28;20212;-59
2021/12/28 05:49:11;;;;;;;6.40;5.80;;;15.90;22.50;;;;;;5058752;28;20209;-59
2021/12/28 05:51:38;;;;;;;6.28;5.78;;;15.90;22.40;;;;;;5058469;28;20597;-59
2021/12/28 05:54:05;;;;;;;6.30;5.70;;;15.80;22.40;;;;;;5058137;28;20220;-59
2021/12/28 05:56:32;;;;;;;6.30;5.70;;;15.80;22.40;;;;;;5058967;28;20500;-59
2021/12/28 05:58:59;;;;;;;6.40;5.80;;;15.80;22.40;;;;;;5058736;28;20215;-59
2021/12/28 06:01:27;;;;;;;6.32;5.72;;;15.90;22.50;;;;;;5058008;28;20229;-59
2021/12/28 06:03:54;;;;;;;6.38;5.78;;;15.80;22.40;;;;;;5058091;28;20201;-59
2021/12/28 06:06:22;;;;;;;6.20;5.60;;;15.80;22.40;;;;;;5058669;28;20209;-58
2021/12/28 06:08:51;;;;;;;6.25;5.65;;;15.80;22.40;;;;;;5058774;28;20209;-59
2021/12/28 06:11:18;;;;;;;6.22;5.63;;;15.80;22.50;;;;;;5058790;28;20612;-59
2021/12/28 06:13:46;;;;;;;5.97;5.40;;;15.80;22.50;;;;;;5057907;28;20219;-59
2021/12/28 06:16:14;;;;;;;6.10;5.60;;;15.70;22.50;;;;;;5058344;28;20627;-59
2021/12/28 06:18:42;;;;;;;6.35;5.78;;;15.70;22.50;;;;;;5058261;28;20678;-59
2021/12/28 06:21:09;;;;;;;6.05;5.45;;;15.70;22.50;;;;;;5057825;28;20229;-59
2021/12/28 06:23:37;;;;;;;5.70;5.20;;;15.70;22.50;;;;;;5058269;28;20197;-59
2021/12/28 06:26:05;;;;;;;5.93;5.43;;;15.70;22.50;;;;;;5058529;28;20217;-59
2021/12/28 06:28:32;;;;;;;6.10;5.60;;;15.70;22.50;;;;;;5058381;28;20205;-59
2021/12/28 06:30:59;;;;;;;5.75;5.25;;;15.70;22.50;;;;;;5059052;28;20489;-59
2021/12/28 06:33:27;;;;;;;6.20;5.60;;;15.60;22.50;;;;;;5015869;28;1216667;-59
2021/12/28 06:35:55;;;;;;;6.18;5.57;;;15.70;22.60;;;;;;5059137;28;20216;-59
2021/12/28 06:38:22;;;;;;;6.03;5.53;;;15.60;22.60;;;;;;5059230;28;20213;-59
2021/12/28 06:40:51;;;;;;;5.72;5.22;;;15.60;22.50;;;;;;5058768;28;20243;-59
2021/12/28 06:43:18;;;;;;;5.60;5.10;;;15.60;22.60;;;;;;5058596;28;20208;-59
2021/12/28 06:45:46;;;;;;;5.78;5.28;;;15.60;22.60;;;;;;5058658;28;20205;-59
2021/12/28 06:48:13;;;;;;;6.05;5.45;;;15.60;22.60;;;;;;5058771;28;20224;-59
2021/12/28 06:50:40;;;;;;;6.28;5.68;;;15.50;22.60;;;;;;5058228;28;20201;-59
2021/12/28 06:53:07;;;;;;;5.90;5.35;;;15.60;22.70;;;;;;5058367;28;20200;-59
2021/12/28 06:55:34;;;;;;;6.10;5.60;;;15.50;22.60;;;;;;5058669;28;20205;-59
2021/12/28 06:58:05;;;;;;;5.82;5.22;;;15.50;22.60;;;;;;5058686;28;20236;-59
2021/12/28 07:00:32;;;;;;;6.43;5.82;;;15.50;22.50;;;;;;5058315;28;20588;-59
2021/12/28 07:03:00;;;;;;;6.30;5.75;;;15.50;22.60;;;;;;5057929;28;20215;-59
2021/12/28 07:05:28;;;;;;;5.82;5.32;;;15.50;22.70;;;;;;5058130;28;20662;-59
2021/12/28 07:07:55;;;;;;;6.10;5.60;;;15.50;22.70;;;;;;5058493;28;20502;-59
2021/12/28 07:10:22;;;;;;;5.80;5.20;;;15.50;22.70;;;;;;5058468;28;20212;-59
2021/12/28 07:12:50;;;;;;;6.30;5.70;;;15.50;22.70;;;;;;5057690;28;20212;-60
2021/12/28 07:15:20;;;;;;;5.68;5.18;;;15.40;22.70;;;;;;5058065;28;20241;-59
2021/12/28 07:17:48;;;;;;;6.00;5.40;;;15.40;22.70;;;;;;5058278;28;20205;-59
2021/12/28 07:20:16;;;;;;;5.78;5.28;;;15.40;22.70;;;;;;5057728;28;20370;-59
2021/12/28 07:22:43;;;;;;;5.65;5.15;;;15.40;22.80;;;;;;5057751;28;20221;-59
2021/12/28 07:25:12;;;;;;;6.40;5.80;;;15.40;22.80;;;;;;5057544;28;20677;-59
2021/12/28 07:27:39;;;;;;;6.28;5.68;;;15.30;22.70;;;;;;5057705;28;20201;-59
2021/12/28 07:30:10;;;;;;;6.20;5.70;;;15.40;22.80;;;;;;5057917;28;20204;-59
2021/12/28 07:32:39;;;;;;;6.35;5.85;;;15.30;22.70;;;;;;5056467;28;20193;-59
2021/12/28 07:35:07;;;;;;;6.20;5.70;;;15.30;22.70;;;;;;5056861;28;20229;-59
2021/12/28 07:37:35;;;;;;;6.13;5.53;;;15.30;22.70;;;;;;5057550;28;20216;-59
2021/12/28 07:40:02;;;;;;;6.20;5.60;;;15.30;22.80;;;;;;5057829;28;20490;-59
2021/12/28 07:42:29;;;;;;;5.82;5.32;;;15.30;22.80;;;;;;5057645;28;20240;-59
2021/12/28 07:44:56;;;;;;;5.93;5.43;;;15.30;22.80;;;;;;5057382;28;20197;-59
2021/12/28 07:47:23;;;;;;;5.57;5.13;;;15.30;22.80;;;;;;5057431;28;20483;-59
2021/12/28 07:49:52;;;;;;;5.85;5.35;;;15.20;22.70;;;;;;5056893;28;20208;-59
2021/12/28 07:52:19;;;;;;;5.97;5.47;;;15.20;22.70;;;;;;5057087;28;20201;-59
2021/12/28 07:54:47;;;;;;;5.80;5.20;;;15.20;22.80;;;;;;5056795;28;20476;-59
2021/12/28 07:57:14;;;;;;;5.88;5.35;;;15.20;22.80;;;;;;5056835;28;20205;-59
2021/12/28 07:59:41;;;;;;;6.13;5.53;;;15.20;22.80;;;;;;5056422;28;20208;-59
2021/12/28 08:02:08;;;;;;;6.40;5.80;;;15.20;22.80;;;;;;5056531;28;20690;-59
2021/12/28 08:04:36;;;;;;;6.30;5.70;;;15.20;22.80;;;;;;5056666;28;20205;-59
2021/12/28 08:07:04;;;;;;;5.38;4.88;;;15.10;22.70;;;;;;5056170;28;20205;-59
2021/12/28 08:09:31;;;;;;;5.85;5.30;;;15.10;22.80;;;;;;5056953;28;20217;-59
2021/12/28 08:11:58;;;;;;;5.38;4.97;;;15.20;22.90;;;;;;5056700;28;20201;-59
2021/12/28 08:14:26;;;;;;;6.00;5.40;;;15.10;22.80;;;;;;5055737;28;20223;-59
2021/12/28 08:16:53;;;;;;;5.63;5.13;;;15.10;22.80;;;;;;5055697;28;20490;-59
2021/12/28 08:19:20;;;;;;;6.28;5.68;;;15.10;22.90;;;;;;5056853;28;20544;-59
2021/12/28 08:21:47;;;;;;;6.10;5.50;;;15.10;22.80;;;;;;5055902;28;20243;-59
2021/12/28 08:24:16;;;;;;;5.53;5.03;;;15.10;22.90;;;;;;5055891;28;20201;-59
2021/12/28 08:26:43;;;;;;;5.55;5.05;;;15.10;22.90;;;;;;5055772;28;20216;-59
2021/12/28 08:29:10;;;;;;;5.88;5.38;;;15.10;22.90;;;;;;5055619;28;20204;-59
2021/12/28 08:31:39;;;;;;;5.75;5.25;;;15.00;22.80;;;;;;5055598;28;20204;-59
2021/12/28 08:34:06;;;;;;;6.32;5.72;;;15.00;22.90;;;;;;5054861;28;20232;-59
2021/12/28 08:36:33;;;;;;;5.68;5.10;;;15.00;22.90;;;;;;5055358;28;20747;-59
2021/12/28 08:39:00;;;;;;;6.05;5.55;;;15.00;22.90;;;;;;5054705;28;20239;-59
2021/12/28 08:41:29;;;;;;;5.38;4.97;;;15.00;22.80;;;;;;5055452;28;20228;-59
2021/12/28 08:43:56;;;;;;;5.68;5.25;;;15.00;22.90;;;;;;5055162;28;20208;-59
2021/12/28 08:46:23;;;;;;;5.38;4.93;;;15.00;22.90;;;;;;5055683;28;20493;-59
2021/12/28 08:48:51;;;;;;;5.40;4.90;;;15.00;23.00;;;;;;5055462;28;20620;-59
2021/12/28 08:51:18;;;;;;;5.10;4.70;;;15.00;23.00;;;;;;5054619;28;20193;-59
2021/12/28 08:53:45;;;;;;;5.70;5.20;;;15.00;23.00;;;;;;5055518;28;20492;-59
2021/12/28 08:56:12;;;;;;;5.88;5.22;;;14.90;22.90;;;;;;5053635;28;20204;-59
2021/12/28 08:58:41;;;;;;;5.30;4.80;;;15.00;23.00;;;;;;5054557;28;20205;-59
2021/12/28 09:01:08;;;;;;;5.45;4.95;;;14.90;22.90;;;;;;5054529;28;20226;-59
2021/12/28 09:03:35;;;;;;;5.35;4.65;;;14.90;23.00;;;;;;5055470;28;20303;-59
2021/12/28 09:06:04;;;;;;;5.75;4.68;;;14.90;22.90;;;;;;5055357;28;20209;-59
2021/12/28 09:08:31;;;;;;;5.93;4.60;;;14.90;22.90;;;;;;5054658;28;20279;-59
2021/12/28 09:10:58;;;;;;;5.40;4.90;;;14.90;23.00;;;;;;5054822;28;20205;-59
2021/12/28 09:13:25;;;;;;;5.30;4.80;;;14.90;23.00;;;;;;5055045;28;20189;-58
2021/12/28 09:15:54;;;;;;;5.22;4.72;;;14.80;23.00;;;;;;5035717;28;20198;-59
2021/12/28 09:18:22;;;;;;;5.30;4.47;;;14.90;23.00;;;;;;5034745;28;20215;-59
2021/12/28 09:20:50;;;;;;;5.82;4.53;;;14.80;23.00;;;;;;5034677;28;20304;-59
2021/12/28 09:23:17;;;;;;;5.95;4.85;;;14.80;23.00;;;;;;5034841;28;20231;-59
2021/12/28 09:25:44;;;;;;;6.07;5.47;;;14.80;23.00;;;;;;5034031;28;20210;-59
2021/12/28 09:28:12;;;;;;;6.70;6.03;;;14.80;23.00;;;;;;5033916;28;20206;-59
2021/12/28 09:30:41;;;;;;;10.38;9.10;;;14.80;23.00;;;;;;5035857;28;20224;-59
2021/12/28 09:33:10;;;;;;;14.77;11.07;;;14.70;23.00;;;;;;5054731;28;20491;-59
2021/12/28 09:35:38;;;;;;;14.25;10.85;;;14.70;23.00;;;;;;5034386;28;20210;-59
2021/12/28 09:38:05;;;;;;;12.90;10.15;;;14.70;23.00;;;;;;5034327;28;20709;-59
2021/12/28 09:40:34;;;;;;;11.90;10.07;;;14.70;23.00;;;;;;5033042;28;20498;-59
2021/12/28 09:43:02;;;;;;;12.85;10.70;;;14.70;23.10;;;;;;5034812;28;20563;-59
2021/12/28 09:45:29;;;;;;;11.23;9.30;;;14.70;23.10;;;;;;5034112;28;20206;-59
2021/12/28 09:47:57;;;;;;;10.63;9.23;;;14.70;23.10;;;;;;5033619;28;20205;-59
2021/12/28 09:50:25;;;;;;;12.02;9.90;;;14.70;23.00;;;;;;5033490;28;20201;-59
2021/12/28 09:52:53;;;;;;;12.90;9.80;;;14.70;23.10;;;;;;5033292;28;20194;-58
2021/12/28 09:55:24;;;;;;;10.80;9.30;;;14.70;23.10;;;;;;5034400;28;20593;-58
2021/12/28 09:57:52;;;;;;;9.88;8.73;;;14.70;23.20;;;;;;5037452;28;20209;-59
2021/12/28 10:00:20;;;;;;;10.90;9.00;;;14.70;23.20;;;;;;5036400;28;20501;-59
2021/12/28 10:02:48;;;;;;;11.75;8.85;;;14.70;23.30;;;;;;5036651;28;20237;-59
2021/12/28 10:05:18;;;;;;;9.68;8.68;;;14.70;23.30;;;;;;5037125;28;20209;-58
2021/12/28 10:07:49;;;;;;;10.20;8.88;;;14.70;23.30;;;;;;5037019;28;20208;-59
2021/12/28 10:10:16;;;;;;;9.80;8.80;;;14.70;23.40;;;;;;5037407;28;20630;-59
2021/12/28 10:12:46;;;;;;;9.35;8.32;;;14.70;23.40;;;;;;5037128;28;20216;-59
2021/12/28 10:15:17;;;;;;;9.82;8.68;;;14.70;23.40;;;;;;5037398;28;20228;-59
2021/12/28 10:17:46;;;;;;;9.02;8.10;;;14.70;23.40;;;;;;5036152;28;20193;-58
2021/12/28 10:20:16;;;;;;;9.20;7.97;;;14.70;23.60;;;;;;5035897;28;20224;-59
2021/12/28 10:22:48;;;;;;;8.65;7.75;;;14.70;23.60;;;;;;5036299;28;20226;-59
2021/12/28 10:25:18;;;;;;;8.52;7.63;;;14.70;23.50;;;;;;5035918;28;20216;-59
2021/12/28 10:27:47;;;;;;;7.97;7.18;;;14.70;23.50;;;;;;5036496;28;20206;-59
2021/12/28 10:30:17;;;;;;;8.60;7.70;;;14.70;23.60;;;;;;5036422;28;20202;-59
2021/12/28 10:32:46;;;;;;;7.93;7.13;;;14.70;23.70;;;;;;5036967;28;20209;-59
2021/12/28 10:35:16;;;;;;;7.63;6.82;;;14.70;23.60;;;;;;5054157;28;20760;-59
2021/12/28 10:37:49;;;;;;;10.15;8.88;;;14.70;23.60;;;;;;5056351;28;20204;-59
2021/12/28 10:40:25;;;;;;;10.35;8.82;;;14.70;23.60;;;;;;5057164;28;20612;-59
2021/12/28 10:42:58;;;;;;;21.45;19.45;;;14.80;23.70;;;;;;5055868;28;20220;-59
2021/12/28 10:45:29;;;;;;;15.35;13.88;;;14.70;23.70;;;;;;5056104;28;20220;-59
2021/12/28 10:47:57;;;;;;;13.68;12.38;;;14.80;23.80;;;;;;5056686;28;20197;-59
2021/12/28 10:50:37;;;;;;;13.43;12.10;;;14.80;23.80;;;;;;5055201;28;20232;-59
2021/12/28 10:53:17;;;;;;;12.02;10.82;;;14.80;23.90;;;;;;5056072;28;20196;-59
2021/12/28 10:55:45;;;;;;;11.93;10.82;;;14.80;23.90;;;;;;5057003;28;20205;-59
2021/12/28 10:58:25;;;;;;;11.68;10.48;;;14.90;23.90;;;;;;5056615;28;20500;-58
2021/12/28 11:00:53;;;;;;;11.40;10.30;;;14.90;24.10;;;;;;5056265;28;20211;-58
2021/12/28 11:03:32;;;;;;;11.32;10.13;;;14.90;24.10;;;;;;5055750;28;20240;-59
2021/12/28 11:06:05;;;;;;;10.52;9.60;;;15.00;24.30;;;;;;5055490;28;20205;-59
2021/12/28 11:08:34;;;;;;;10.48;9.50;;;15.00;24.40;;;;;;5055444;28;20197;-59
2021/12/28 11:11:04;;;;;;;9.88;8.95;;;15.00;24.50;;;;;;5055149;28;20212;-58
2021/12/28 11:13:33;;;;;;;8.98;8.07;;;15.10;24.80;;;;;;5056317;28;20541;-58
2021/12/28 11:16:02;;;;;;;9.05;8.23;;;15.10;24.90;;;;;;5055074;28;20219;-58
2021/12/28 11:18:33;;;;;;;8.80;8.00;;;15.20;24.90;;;;;;5055679;28;20216;-59
2021/12/28 11:21:02;;;;;;;9.40;7.35;;;15.20;25.00;;;;;;5055600;28;20204;-59
2021/12/28 11:23:31;;;;;;;7.75;7.05;;;15.20;25.00;;;;;;5054807;28;20229;-59
2021/12/28 11:26:15;;;;;;;7.70;7.00;;;15.20;25.00;;;;;;5055048;28;20212;-59
2021/12/28 11:28:52;;;;;;;8.23;7.13;;;15.30;25.10;;;;;;5054537;28;20201;-58
2021/12/28 11:31:21;;;;;;;7.20;6.53;;;15.30;25.10;;;;;;5054965;28;20228;-58
2021/12/28 11:34:01;;;;;;;7.03;6.43;;;15.40;25.20;;;;;;5055384;28;20233;-58
2021/12/28 11:36:31;;;;;;;6.93;6.22;;;15.40;25.10;;;;;;5055239;28;20205;-58
2021/12/28 11:39:01;;;;;;;6.78;5.97;;;15.40;25.10;;;;;;5055500;28;20201;-59
2021/12/28 11:41:30;;;;;;;6.50;5.90;;;15.50;25.10;;;;;;5055569;28;20473;-59
2021/12/28 11:43:58;;;;;;;6.30;5.22;;;15.50;25.00;;;;;;5055512;28;20236;-59
2021/12/28 11:46:26;;;;;;;5.82;5.32;;;15.50;25.00;;;;;;5055606;28;20209;-59
2021/12/28 11:48:54;;;;;;;5.78;5.18;;;15.50;24.90;;;;;;5038151;28;20202;-59
2021/12/28 11:51:22;;;;;;;7.53;5.72;;;15.60;25.00;;;;;;5035069;28;20209;-59
2021/12/28 11:53:50;;;;;;;6.57;5.28;;;15.60;24.90;;;;;;5054184;28;20256;-59
2021/12/28 11:56:21;;;;;;;6.65;5.05;;;15.60;24.80;;;;;;5055183;28;20200;-59
2021/12/28 11:59:16;;;;;;;8.68;5.20;;;15.60;24.80;;;;;;5054924;28;20200;-60
2021/12/28 12:02:00;;;;;;;6.07;5.43;;;15.70;24.70;;;;;;5055187;28;20209;-60
2021/12/28 12:04:57;;;;;;;5.25;4.85;;;15.70;24.70;;;;;;5053952;28;20231;-60
2021/12/28 12:07:36;;;;;;;5.22;4.72;;;15.70;24.70;;;;;;5054732;28;20304;-59
2021/12/28 12:10:13;;;;;;;5.30;4.63;;;15.70;24.60;;;;;;5054438;28;20331;-60
2021/12/28 12:12:50;;;;;;;7.00;5.05;;;15.70;24.60;;;;;;5053601;28;20723;-60
2021/12/28 12:15:19;;;;;;;5.28;4.78;;;15.80;24.60;;;;;;5054420;28;20595;-60
2021/12/28 12:17:47;;;;;;;6.78;4.78;;;15.80;24.50;;;;;;5054235;28;20201;-60
2021/12/28 12:20:30;;;;;;;5.35;4.72;;;15.80;24.50;;;;;;5054708;28;20220;-59
2021/12/28 12:23:18;;;;;;;4.60;4.00;;;15.80;24.60;;;;;;5054595;28;20374;-60
2021/12/28 12:25:50;;;;;;;7.05;4.55;;;15.80;24.60;;;;;;5054805;28;20197;-60
2021/12/28 12:28:24;;;;;;;4.72;4.20;;;15.80;24.50;;;;;;5054386;28;20580;-59
2021/12/28 12:30:57;;;;;;;4.80;4.30;;;15.80;24.50;;;;;;5054684;28;20208;-59
2021/12/28 12:33:33;;;;;;;5.30;4.20;;;15.80;24.40;;;;;;5054022;28;20205;-60
2021/12/28 12:36:01;;;;;;;77.45;62.15;;;15.80;24.40;;;;;;5053624;28;20607;-60
2021/12/28 12:38:36;;;;;;;42.20;32.55;;;15.80;24.30;;;;;;5054298;28;20216;-60
2021/12/28 12:41:09;;;;;;;33.78;28.42;;;15.80;24.30;;;;;;5054979;28;20205;-60
2021/12/28 12:43:46;;;;;;;32.03;26.17;;;15.90;24.30;;;;;;5054292;28;20228;-60
2021/12/28 12:46:20;;;;;;;27.17;24.27;;;15.90;24.40;;;;;;5054344;28;20205;-60
2021/12/28 12:49:01;;;;;;;27.52;24.25;;;15.90;24.50;;;;;;5054616;28;20242;-60
2021/12/28 12:51:31;;;;;;;24.42;21.25;;;15.90;24.50;;;;;;5054223;28;20232;-60
2021/12/28 12:54:12;;;;;;;23.35;20.10;;;16.00;24.60;;;;;;5053793;28;20224;-60